createdAt,value
2023-05-14T00:01:54.061Z,4.43
2023-05-14T00:04:39.631Z,4.40
2023-05-14T00:07:31.895Z,4.68
2023-05-14T00:10:18.948Z,4.45
2023-05-14T00:15:49.376Z,4.90
2023-05-14T00:18:34.646Z,4.45
2023-05-14T00:21:19.371Z,4.50
2023-05-14T00:24:04.670Z,4.70
2023-05-14T00:26:49.767Z,4.28
2023-05-14T00:29:35.017Z,4.55
2023-05-14T00:32:20.086Z,4.97
2023-05-14T00:35:05.660Z,4.05
2023-05-14T00:37:50.874Z,4.10
2023-05-14T00:40:36.306Z,4.30
2023-05-14T00:43:22.556Z,4.90
2023-05-14T00:46:07.850Z,4.18
2023-05-14T00:48:53.692Z,4.18
2023-05-14T00:51:42.354Z,4.28
2023-05-14T00:54:28.030Z,4.53
2023-05-14T00:57:13.363Z,4.60
2023-05-14T00:59:59.438Z,4.20
2023-05-14T01:02:44.654Z,4.30
2023-05-14T01:05:41.223Z,4.70
2023-05-14T01:08:32.793Z,4.63
2023-05-14T01:11:24.613Z,4.03
2023-05-14T01:14:42.195Z,4.43
2023-05-14T01:17:30.322Z,4.47
2023-05-14T01:20:16.210Z,4.97
2023-05-14T01:23:01.599Z,4.28
2023-05-14T01:25:46.636Z,4.13
2023-05-14T01:28:36.622Z,4.38
2023-05-14T01:31:27.822Z,4.50
2023-05-14T01:34:14.563Z,4.18
2023-05-14T01:37:00.572Z,4.70
2023-05-14T01:39:46.789Z,4.50
2023-05-14T01:42:32.208Z,4.57
2023-05-14T01:45:20.304Z,4.63
2023-05-14T01:48:05.769Z,4.85
2023-05-14T01:50:51.346Z,5.47
2023-05-14T01:53:36.256Z,4.75
2023-05-14T01:56:23.653Z,4.45
2023-05-14T01:59:08.497Z,4.25
2023-05-14T02:01:53.509Z,4.68
2023-05-14T02:04:38.522Z,4.35
2023-05-14T02:07:23.422Z,4.68
2023-05-14T02:10:09.290Z,4.55
2023-05-14T02:12:54.465Z,4.65
2023-05-14T02:15:39.670Z,4.47
2023-05-14T02:18:25.766Z,4.65
2023-05-14T02:21:10.887Z,4.68
2023-05-14T02:23:56.269Z,4.95
2023-05-14T02:26:42.075Z,5.00
2023-05-14T02:29:27.783Z,4.50
2023-05-14T02:32:13.147Z,4.88
2023-05-14T02:34:58.572Z,4.78
2023-05-14T02:37:43.421Z,4.57
2023-05-14T02:40:28.466Z,4.70
2023-05-14T02:43:13.296Z,5.00
2023-05-14T02:45:58.208Z,4.80
2023-05-14T02:48:43.160Z,4.68
2023-05-14T02:51:28.516Z,5.75
2023-05-14T02:54:13.342Z,4.63
2023-05-14T02:56:58.173Z,4.88
2023-05-14T02:59:42.953Z,5.38
2023-05-14T03:02:28.294Z,4.28
2023-05-14T03:05:14.249Z,4.90
2023-05-14T03:08:00.840Z,4.53
2023-05-14T03:10:45.873Z,4.50
2023-05-14T03:13:31.028Z,5.03
2023-05-14T03:16:15.914Z,5.13
2023-05-14T03:19:00.825Z,4.60
2023-05-14T03:21:46.171Z,4.65
2023-05-14T03:24:31.617Z,5.32
2023-05-14T03:27:16.988Z,4.60
2023-05-14T03:30:03.130Z,5.03
2023-05-14T03:32:48.053Z,5.40
2023-05-14T03:35:33.141Z,4.70
2023-05-14T03:38:18.072Z,4.93
2023-05-14T03:41:03.393Z,5.10
2023-05-14T03:43:48.317Z,4.85
2023-05-14T03:46:33.204Z,5.05
2023-05-14T03:49:18.980Z,4.80
2023-05-14T03:52:04.070Z,5.20
2023-05-14T03:54:49.223Z,5.00
2023-05-14T03:57:34.226Z,5.05
2023-05-14T04:00:19.302Z,4.78
2023-05-14T04:03:04.430Z,5.18
2023-05-14T04:05:51.152Z,5.18
2023-05-14T04:08:36.024Z,5.43
2023-05-14T04:11:22.436Z,5.18
2023-05-14T04:14:07.667Z,5.40
2023-05-14T04:16:52.788Z,5.40
2023-05-14T04:19:37.884Z,5.38
2023-05-14T04:22:23.481Z,5.10
2023-05-14T04:25:08.595Z,5.72
2023-05-14T04:27:54.255Z,5.25
2023-05-14T04:30:39.234Z,5.22
2023-05-14T04:33:24.409Z,5.20
2023-05-14T04:36:09.306Z,4.80
2023-05-14T04:38:54.195Z,4.88
2023-05-14T04:41:39.029Z,5.25
2023-05-14T04:44:23.904Z,6.15
2023-05-14T04:47:08.731Z,5.38
2023-05-14T04:49:53.518Z,5.65
2023-05-14T04:52:39.182Z,5.43
2023-05-14T04:55:24.295Z,6.10
2023-05-14T04:58:09.285Z,5.97
2023-05-14T05:00:54.192Z,5.70
2023-05-14T05:03:39.219Z,5.18
2023-05-14T05:06:24.041Z,6.00
2023-05-14T05:09:09.791Z,6.00
2023-05-14T05:11:54.874Z,5.50
2023-05-14T05:14:39.750Z,6.13
2023-05-14T05:17:25.300Z,6.38
2023-05-14T05:20:11.046Z,5.93
2023-05-14T05:22:56.257Z,5.72
2023-05-14T05:25:41.132Z,5.95
2023-05-14T05:28:26.163Z,5.53
2023-05-14T05:31:11.380Z,5.72
2023-05-14T05:33:57.672Z,5.90
2023-05-14T05:36:42.757Z,6.00
2023-05-14T05:39:27.560Z,5.47
2023-05-14T05:42:12.266Z,6.05
2023-05-14T05:44:57.331Z,5.72
2023-05-14T05:47:42.968Z,6.28
2023-05-14T05:50:27.766Z,6.32
2023-05-14T05:53:12.993Z,5.65
2023-05-14T05:55:57.849Z,6.05
2023-05-14T05:58:42.640Z,5.78
2023-05-14T06:01:27.551Z,6.15
2023-05-14T06:04:13.045Z,6.40
2023-05-14T06:06:58.325Z,6.72
2023-05-14T06:09:43.607Z,5.93
2023-05-14T06:12:28.467Z,6.80
2023-05-14T06:15:13.352Z,6.80
2023-05-14T06:17:58.371Z,6.68
2023-05-14T06:20:43.144Z,7.22
2023-05-14T06:23:28.353Z,6.28
2023-05-14T06:26:13.190Z,6.43
2023-05-14T06:28:58.442Z,6.43
2023-05-14T06:31:43.548Z,6.15
2023-05-14T06:34:28.591Z,6.45
2023-05-14T06:37:13.414Z,6.30
2023-05-14T06:39:58.944Z,6.53
2023-05-14T06:42:44.152Z,6.63
2023-05-14T06:45:32.435Z,6.28
2023-05-14T06:48:19.363Z,6.82
2023-05-14T06:51:04.963Z,5.45
2023-05-14T06:53:50.234Z,5.57
2023-05-14T06:56:35.352Z,5.25
2023-05-14T06:59:21.865Z,5.72
2023-05-14T07:02:07.240Z,5.50
2023-05-14T07:04:52.429Z,5.22
2023-05-14T07:07:37.641Z,4.82
2023-05-14T07:10:22.952Z,5.45
2023-05-14T07:13:08.493Z,5.38
2023-05-14T07:15:55.923Z,5.05
2023-05-14T07:18:41.474Z,4.95
2023-05-14T07:21:26.317Z,4.80
2023-05-14T07:24:11.086Z,4.93
2023-05-14T07:26:57.183Z,4.25
2023-05-14T07:29:42.890Z,4.40
2023-05-14T07:32:28.148Z,4.20
2023-05-14T07:35:14.325Z,3.58
2023-05-14T07:37:59.602Z,4.57
2023-05-14T07:40:45.338Z,4.30
2023-05-14T07:43:30.113Z,4.10
2023-05-14T07:46:15.110Z,4.10
2023-05-14T07:48:59.878Z,4.15
2023-05-14T07:51:46.903Z,3.97
2023-05-14T07:57:17.494Z,3.97
2023-05-14T08:00:02.615Z,3.92
2023-05-14T08:02:49.192Z,3.67
2023-05-14T08:05:34.303Z,5.13
2023-05-14T08:08:19.227Z,4.50
2023-05-14T08:11:04.814Z,4.10
2023-05-14T08:13:49.929Z,4.13
2023-05-14T08:16:34.773Z,5.38
2023-05-14T08:19:20.143Z,4.68
2023-05-14T08:22:07.657Z,4.20
2023-05-14T08:24:52.982Z,3.95
2023-05-14T08:27:37.875Z,4.68
2023-05-14T08:30:23.567Z,3.75
2023-05-14T08:33:08.591Z,3.88
2023-05-14T08:35:53.969Z,4.28
2023-05-14T08:38:38.902Z,5.20
2023-05-14T08:41:24.151Z,4.80
2023-05-14T08:44:19.200Z,4.13
2023-05-14T08:47:05.132Z,4.32
2023-05-14T08:50:04.555Z,4.78
2023-05-14T08:52:52.233Z,4.50
2023-05-14T08:55:38.568Z,4.25
2023-05-14T08:58:26.824Z,4.82
2023-05-14T09:01:14.640Z,4.80
2023-05-14T09:04:01.461Z,4.85
2023-05-14T09:06:53.797Z,4.60
2023-05-14T09:09:39.972Z,4.63
2023-05-14T09:12:25.283Z,4.70
2023-05-14T09:15:10.908Z,4.53
2023-05-14T09:17:57.000Z,4.10
2023-05-14T09:20:42.123Z,4.38
2023-05-14T09:23:27.851Z,4.78
2023-05-14T09:26:17.072Z,5.00
2023-05-14T09:29:03.192Z,5.05
2023-05-14T09:31:52.021Z,4.30
2023-05-14T09:34:37.947Z,4.57
2023-05-14T09:37:26.268Z,4.53
2023-05-14T09:40:13.113Z,4.22
2023-05-14T09:42:58.753Z,4.57
2023-05-14T09:45:43.970Z,4.30
2023-05-14T09:48:29.931Z,4.22
2023-05-14T09:51:17.761Z,3.75
2023-05-14T09:54:04.536Z,4.25
2023-05-14T10:02:25.582Z,3.70
2023-05-14T10:05:12.997Z,3.30
2023-05-14T10:08:00.535Z,3.33
2023-05-14T10:10:45.832Z,3.80
2023-05-14T10:13:38.185Z,3.60
2023-05-14T10:16:34.269Z,3.53
2023-05-14T10:19:22.937Z,3.30
2023-05-14T10:22:12.659Z,3.67
2023-05-14T10:24:58.324Z,3.53
2023-05-14T10:27:43.803Z,3.53
2023-05-14T10:30:28.784Z,4.15
2023-05-14T10:33:16.419Z,4.10
2023-05-14T10:36:05.630Z,3.47
2023-05-14T10:38:56.992Z,3.90
2023-05-14T10:41:42.673Z,4.15
2023-05-14T10:44:28.023Z,4.28
2023-05-14T10:47:13.968Z,4.20
2023-05-14T10:50:02.483Z,4.85
2023-05-14T10:52:49.109Z,4.40
2023-05-14T10:58:24.288Z,4.32
2023-05-14T11:01:10.803Z,3.92
2023-05-14T11:06:45.251Z,4.55
2023-05-14T11:12:17.022Z,4.07
2023-05-14T11:15:05.768Z,4.03
2023-05-14T11:17:51.692Z,4.03
2023-05-14T11:20:37.493Z,4.68
2023-05-14T11:23:25.205Z,3.90
2023-05-14T11:26:11.397Z,4.47
2023-05-14T11:28:56.255Z,4.57
2023-05-14T11:31:42.639Z,4.35
2023-05-14T11:34:29.321Z,4.10
2023-05-14T11:40:01.329Z,4.03
2023-05-14T11:42:46.386Z,4.30
2023-05-14T11:45:33.308Z,4.30
2023-05-14T11:48:19.046Z,4.68
2023-05-14T11:51:04.549Z,4.65
2023-05-14T11:53:49.814Z,4.50
2023-05-14T11:56:35.093Z,4.50
2023-05-14T11:59:20.300Z,4.60
2023-05-14T12:02:08.354Z,4.70
2023-05-14T12:04:53.836Z,5.00
2023-05-14T12:07:39.817Z,4.68
2023-05-14T12:10:25.756Z,4.35
2023-05-14T12:13:14.816Z,13.70
2023-05-14T12:16:02.336Z,4.60
2023-05-14T12:18:49.127Z,3.80
2023-05-14T12:21:36.187Z,4.38
2023-05-14T12:24:21.350Z,4.30
2023-05-14T12:27:07.911Z,4.05
2023-05-14T12:32:55.403Z,3.78
2023-05-14T12:35:41.041Z,4.35
2023-05-14T12:38:26.178Z,4.38
2023-05-14T12:41:11.567Z,3.90
2023-05-14T12:43:59.032Z,4.35
2023-05-14T12:46:44.261Z,4.03
2023-05-14T12:49:29.409Z,3.90
2023-05-14T12:52:22.692Z,4.45
2023-05-14T12:55:18.182Z,3.67
2023-05-14T12:58:03.306Z,4.20
2023-05-14T13:00:48.171Z,4.07
2023-05-14T13:03:34.247Z,3.63
2023-05-14T13:06:29.893Z,3.45
2023-05-14T13:09:15.127Z,4.00
2023-05-14T13:12:00.623Z,4.00
2023-05-14T13:14:45.599Z,4.28
2023-05-14T13:17:30.614Z,3.75
2023-05-14T13:20:17.668Z,4.18
2023-05-14T13:23:02.831Z,4.32
2023-05-14T13:25:49.728Z,4.50
2023-05-14T13:28:35.190Z,4.78
2023-05-14T13:31:20.520Z,4.32
2023-05-14T13:34:06.028Z,3.53
2023-05-14T13:36:51.011Z,3.22
2023-05-14T13:39:36.506Z,3.65
2023-05-14T13:42:21.741Z,3.60
2023-05-14T13:45:07.655Z,3.65
2023-05-14T13:47:53.326Z,3.88
2023-05-14T13:50:38.439Z,3.75
2023-05-14T13:53:24.498Z,4.03
2023-05-14T13:56:09.536Z,3.60
2023-05-14T13:58:56.168Z,3.40
2023-05-14T14:01:43.142Z,3.25
2023-05-14T14:04:28.978Z,3.47
2023-05-14T14:07:14.162Z,3.60
2023-05-14T14:10:01.744Z,3.83
2023-05-14T14:12:46.653Z,3.97
2023-05-14T14:15:31.832Z,3.58
2023-05-14T14:18:19.271Z,3.38
2023-05-14T14:21:04.673Z,3.42
2023-05-14T14:23:49.874Z,3.40
2023-05-14T14:26:34.737Z,3.50
2023-05-14T14:29:21.751Z,3.40
2023-05-14T14:32:07.819Z,3.88
2023-05-14T14:34:56.307Z,3.97
2023-05-14T14:37:43.281Z,4.07
2023-05-14T14:40:28.512Z,3.60
2023-05-14T14:43:13.400Z,3.75
2023-05-14T14:45:59.963Z,3.65
2023-05-14T14:48:45.798Z,3.95
2023-05-14T14:51:31.255Z,3.67
2023-05-14T14:54:16.216Z,3.45
2023-05-14T14:57:01.397Z,3.40
2023-05-14T14:59:46.844Z,3.30
2023-05-14T15:02:31.907Z,3.80
2023-05-14T15:05:17.096Z,4.13
2023-05-14T15:08:02.010Z,4.25
2023-05-14T15:10:47.345Z,3.55
2023-05-14T15:13:32.755Z,3.80
2023-05-14T15:16:17.922Z,3.47
2023-05-14T15:19:02.688Z,4.72
2023-05-14T15:21:47.929Z,5.72
2023-05-14T15:24:47.142Z,3.80
2023-05-14T15:27:36.715Z,3.92
2023-05-14T15:33:27.767Z,3.42
2023-05-14T15:36:13.405Z,3.22
2023-05-14T15:38:59.576Z,3.67
2023-05-14T15:41:45.512Z,3.92
2023-05-14T15:44:30.898Z,3.33
2023-05-14T15:47:15.963Z,4.05
2023-05-14T15:50:01.084Z,3.63
2023-05-14T15:52:47.557Z,4.88
2023-05-14T15:55:34.784Z,5.80
2023-05-14T15:58:19.896Z,3.60
2023-05-14T16:01:05.629Z,3.90
2023-05-14T16:03:52.315Z,4.93
2023-05-14T16:06:41.378Z,3.47
2023-05-14T16:09:26.658Z,3.70
2023-05-14T16:12:13.621Z,3.60
2023-05-14T16:14:59.831Z,4.07
2023-05-14T16:17:44.906Z,3.80
2023-05-14T16:20:29.852Z,4.22
2023-05-14T16:23:14.653Z,3.92
2023-05-14T16:25:59.889Z,3.75
2023-05-14T16:28:45.198Z,3.53
2023-05-14T16:31:31.483Z,3.50
2023-05-14T16:34:16.638Z,4.22
2023-05-14T16:37:02.265Z,3.88
2023-05-14T16:39:47.732Z,3.80
2023-05-14T16:42:32.788Z,3.55
2023-05-14T16:45:18.063Z,3.88
2023-05-14T16:48:04.332Z,3.85
2023-05-14T16:50:49.873Z,3.85
2023-05-14T16:53:34.818Z,4.10
2023-05-14T16:56:19.613Z,4.00
2023-05-14T16:59:04.591Z,3.75
2023-05-14T17:01:50.059Z,3.78
2023-05-14T17:04:38.872Z,3.63
2023-05-14T17:07:24.638Z,3.72
2023-05-14T17:10:09.866Z,4.15
2023-05-14T17:12:55.435Z,3.70
2023-05-14T17:15:42.365Z,3.85
2023-05-14T17:18:27.715Z,3.20
2023-05-14T17:21:13.702Z,4.20
2023-05-14T17:23:59.491Z,3.53
2023-05-14T17:26:45.070Z,4.00
2023-05-14T17:29:29.977Z,3.85
2023-05-14T17:32:15.331Z,3.42
2023-05-14T17:35:00.723Z,3.75
2023-05-14T17:37:45.811Z,3.58
2023-05-14T17:40:30.802Z,3.53
2023-05-14T17:43:15.788Z,3.40
2023-05-14T17:46:01.205Z,3.78
2023-05-14T17:48:47.425Z,3.65
2023-05-14T17:51:32.386Z,4.43
2023-05-14T17:54:25.120Z,4.03
2023-05-14T17:57:10.652Z,4.10
2023-05-14T17:59:55.893Z,3.80
2023-05-14T18:02:42.198Z,4.20
2023-05-14T18:05:28.944Z,3.80
2023-05-14T18:11:02.420Z,3.80
2023-05-14T18:13:47.381Z,4.10
2023-05-14T18:16:32.399Z,3.72
2023-05-14T18:19:19.376Z,3.72
2023-05-14T18:22:04.678Z,3.88
2023-05-14T18:24:49.753Z,3.47
2023-05-14T18:27:35.031Z,3.88
2023-05-14T18:30:20.034Z,3.42
2023-05-14T18:33:07.998Z,3.83
2023-05-14T18:35:54.550Z,3.95
2023-05-14T18:38:41.175Z,3.85
2023-05-14T18:41:26.667Z,4.05
2023-05-14T18:44:11.720Z,4.07
2023-05-14T18:46:57.115Z,3.50
2023-05-14T18:49:43.230Z,4.47
2023-05-14T18:52:31.959Z,4.10
2023-05-14T18:55:17.172Z,3.97
2023-05-14T18:58:03.669Z,4.28
2023-05-14T19:00:48.567Z,4.03
2023-05-14T19:03:38.583Z,4.15
2023-05-14T19:06:25.895Z,4.05
2023-05-14T19:09:10.885Z,4.25
2023-05-14T19:11:55.811Z,4.57
2023-05-14T19:14:43.760Z,4.28
2023-05-14T19:17:32.677Z,4.40
2023-05-14T19:20:17.916Z,4.82
2023-05-14T19:23:03.157Z,4.07
2023-05-14T19:25:50.343Z,4.18
2023-05-14T19:28:37.813Z,4.38
2023-05-14T19:31:25.134Z,4.88
2023-05-14T19:34:10.390Z,4.60
2023-05-14T19:36:57.623Z,4.78
2023-05-14T19:39:46.317Z,4.80
2023-05-14T19:42:31.934Z,3.95
2023-05-14T19:45:20.304Z,5.40
2023-05-14T19:48:06.390Z,4.40
2023-05-14T19:50:52.711Z,3.92
2023-05-14T19:53:44.396Z,4.25
2023-05-14T19:56:30.651Z,4.50
2023-05-14T19:59:15.942Z,5.05
2023-05-14T20:02:01.718Z,4.18
2023-05-14T20:04:47.559Z,4.38
2023-05-14T20:07:33.306Z,4.30
2023-05-14T20:10:21.798Z,5.18
2023-05-14T20:13:10.156Z,4.63
2023-05-14T20:15:55.842Z,4.78
2023-05-14T20:18:43.483Z,4.60
2023-05-14T20:21:29.973Z,5.05
2023-05-14T20:24:16.264Z,4.50
2023-05-14T20:27:01.909Z,4.68
2023-05-14T20:29:46.987Z,4.60
2023-05-14T20:32:33.294Z,4.50
2023-05-14T20:35:19.021Z,4.28
2023-05-14T20:38:04.097Z,4.40
2023-05-14T20:40:49.297Z,4.43
2023-05-14T20:43:34.246Z,4.50
2023-05-14T20:46:21.357Z,5.53
2023-05-14T20:49:06.315Z,12.52
2023-05-14T20:51:51.210Z,7.55
2023-05-14T20:54:36.734Z,5.53
2023-05-14T20:57:24.756Z,5.55
2023-05-14T21:00:12.417Z,5.63
2023-05-14T21:02:59.916Z,5.10
2023-05-14T21:05:45.093Z,5.60
2023-05-14T21:08:33.037Z,5.45
2023-05-14T21:11:18.723Z,5.45
2023-05-14T21:14:04.679Z,5.25
2023-05-14T21:16:50.076Z,5.65
2023-05-14T21:19:34.840Z,4.70
2023-05-14T21:22:22.498Z,5.35
2023-05-14T21:25:07.532Z,5.50
2023-05-14T21:27:52.662Z,4.88
2023-05-14T21:30:37.596Z,5.22
2023-05-14T21:33:23.945Z,4.70
2023-05-14T21:36:09.708Z,5.40
2023-05-14T21:38:55.092Z,5.45
2023-05-14T21:41:40.889Z,5.47
2023-05-14T21:44:26.003Z,5.97
2023-05-14T21:47:11.367Z,5.32
2023-05-14T21:49:56.339Z,5.40
2023-05-14T21:52:41.483Z,5.15
2023-05-14T21:55:27.680Z,6.45
2023-05-14T21:58:12.905Z,5.38
2023-05-14T22:00:59.843Z,5.70
2023-05-14T22:03:44.976Z,5.28
2023-05-14T22:06:30.827Z,5.32
2023-05-14T22:09:15.840Z,5.05
2023-05-14T22:12:03.061Z,5.03
2023-05-14T22:14:47.889Z,5.20
2023-05-14T22:17:34.892Z,5.43
2023-05-14T22:23:04.945Z,5.22
2023-05-14T22:25:49.753Z,5.90
2023-05-14T22:28:34.622Z,6.07
2023-05-14T22:31:19.912Z,5.75
2023-05-14T22:34:05.282Z,5.35
2023-05-14T22:36:50.209Z,5.05
2023-05-14T22:39:35.027Z,5.60
2023-05-14T22:42:20.630Z,6.07
2023-05-14T22:45:05.955Z,5.70
2023-05-14T22:47:51.380Z,5.38
2023-05-14T22:50:37.029Z,5.25
2023-05-14T22:53:21.878Z,5.60
2023-05-14T22:56:07.055Z,5.63
2023-05-14T22:58:52.133Z,5.70
2023-05-14T23:01:37.510Z,5.82
2023-05-14T23:04:23.002Z,6.13
2023-05-14T23:07:07.934Z,5.40
2023-05-14T23:09:53.091Z,5.68
2023-05-14T23:12:37.900Z,5.38
2023-05-14T23:15:22.816Z,5.55
2023-05-14T23:18:08.592Z,5.30
2023-05-14T23:20:53.425Z,5.53
2023-05-14T23:23:38.609Z,5.55
2023-05-14T23:26:23.614Z,5.50
2023-05-14T23:29:09.318Z,4.60
2023-05-14T23:31:54.002Z,5.90
2023-05-14T23:34:39.284Z,6.22
2023-05-14T23:37:24.407Z,5.20
2023-05-14T23:40:09.992Z,5.85
2023-05-14T23:42:54.712Z,5.20
2023-05-14T23:45:39.952Z,5.60
2023-05-14T23:48:25.676Z,6.72
2023-05-14T23:51:10.438Z,5.78
2023-05-14T23:53:58.817Z,7.03
2023-05-14T23:56:44.309Z,5.28
2023-05-14T23:59:29.876Z,5.43
